createdAt,value
2022-09-23T00:01:14.736Z,9.75
2022-09-23T00:03:45.613Z,10.32
2022-09-23T00:06:15.832Z,10.05
2022-09-23T00:08:44.104Z,9.52
2022-09-23T00:11:19.693Z,9.77
2022-09-23T00:13:49.005Z,10.20
2022-09-23T00:16:24.646Z,8.82
2022-09-23T00:18:51.635Z,9.93
2022-09-23T00:21:19.946Z,9.55
2022-09-23T00:23:47.503Z,9.23
2022-09-23T00:26:17.230Z,9.75
2022-09-23T00:28:44.164Z,9.13
2022-09-23T00:31:23.489Z,9.50
2022-09-23T00:33:59.011Z,9.52
2022-09-23T00:36:27.210Z,8.93
2022-09-23T00:38:55.118Z,9.40
2022-09-23T00:41:22.324Z,9.45
2022-09-23T00:43:53.018Z,9.52
2022-09-23T00:46:29.778Z,8.70
2022-09-23T00:49:28.217Z,9.07
2022-09-23T00:52:06.857Z,8.82
2022-09-23T00:54:34.216Z,9.07
2022-09-23T00:57:01.780Z,8.00
2022-09-23T00:59:29.257Z,8.40
2022-09-23T01:01:59.142Z,8.48
2022-09-23T01:04:28.042Z,8.30
2022-09-23T01:06:54.952Z,7.93
2022-09-23T01:09:23.223Z,7.70
2022-09-23T01:12:02.214Z,7.30
2022-09-23T01:14:45.977Z,6.40
2022-09-23T01:17:19.495Z,6.82
2022-09-23T01:20:14.515Z,6.00
2022-09-23T01:22:41.485Z,6.75
2022-09-23T01:25:14.236Z,6.50
2022-09-23T01:27:53.310Z,6.32
2022-09-23T01:30:48.518Z,6.38
2022-09-23T01:33:51.600Z,5.90
2022-09-23T01:36:21.235Z,6.90
2022-09-23T01:38:50.933Z,6.82
2022-09-23T01:41:55.571Z,6.40
2022-09-23T01:44:27.632Z,6.68
2022-09-23T01:47:00.821Z,6.40
2022-09-23T01:49:52.261Z,6.55
2022-09-23T01:52:44.767Z,6.35
2022-09-23T01:55:39.223Z,5.60
2022-09-23T01:58:12.484Z,6.15
2022-09-23T02:00:48.189Z,6.57
2022-09-23T02:03:27.576Z,6.18
2022-09-23T02:05:58.406Z,6.63
2022-09-23T02:08:45.665Z,6.93
2022-09-23T02:11:15.487Z,6.72
2022-09-23T02:14:07.805Z,7.00
2022-09-23T02:16:43.177Z,7.45
2022-09-23T02:19:18.559Z,6.82
2022-09-23T02:21:53.076Z,7.05
2022-09-23T02:24:22.740Z,7.05
2022-09-23T02:26:56.053Z,6.80
2022-09-23T02:29:33.807Z,6.65
2022-09-23T02:32:35.361Z,6.38
2022-09-23T02:35:18.689Z,6.47
2022-09-23T02:38:07.156Z,6.90
2022-09-23T02:40:47.381Z,6.38
2022-09-23T02:43:31.496Z,6.85
2022-09-23T02:45:58.813Z,6.25
2022-09-23T02:48:34.322Z,6.47
2022-09-23T02:51:03.695Z,6.95
2022-09-23T02:53:35.107Z,7.47
2022-09-23T02:56:12.874Z,7.32
2022-09-23T02:58:39.859Z,6.82
2022-09-23T03:01:11.113Z,6.82
2022-09-23T03:04:21.586Z,6.40
2022-09-23T03:07:21.932Z,7.18
2022-09-23T03:09:59.016Z,6.57
2022-09-23T03:12:47.894Z,6.38
2022-09-23T03:15:23.353Z,6.70
2022-09-23T03:18:01.443Z,6.45
2022-09-23T03:20:45.345Z,5.75
2022-09-23T03:23:15.381Z,6.13
2022-09-23T03:25:47.511Z,6.38
2022-09-23T03:28:17.698Z,5.85
2022-09-23T03:30:45.366Z,6.60
2022-09-23T03:33:16.892Z,6.78
2022-09-23T03:36:15.993Z,6.30
2022-09-23T03:38:51.637Z,6.97
2022-09-23T03:41:30.269Z,6.80
2022-09-23T03:44:00.001Z,7.88
2022-09-23T03:46:28.680Z,7.47
2022-09-23T03:49:19.985Z,7.53
2022-09-23T03:51:47.066Z,8.07
2022-09-23T03:54:14.000Z,8.48
2022-09-23T03:56:40.953Z,7.22
2022-09-23T03:59:08.033Z,8.48
2022-09-23T04:01:34.941Z,7.47
2022-09-23T04:04:04.506Z,7.72
2022-09-23T04:06:31.424Z,7.55
2022-09-23T04:08:59.030Z,6.88
2022-09-23T04:11:25.932Z,7.72
2022-09-23T04:13:52.840Z,6.95
2022-09-23T04:16:19.765Z,7.03
2022-09-23T04:18:46.867Z,7.45
2022-09-23T04:21:13.785Z,6.97
2022-09-23T04:23:41.384Z,7.72
2022-09-23T04:26:08.478Z,6.82
2022-09-23T04:28:35.492Z,8.05
2022-09-23T04:31:07.173Z,7.03
2022-09-23T04:33:34.549Z,6.57
2022-09-23T04:36:01.817Z,6.53
2022-09-23T04:38:28.905Z,6.93
2022-09-23T04:40:55.881Z,7.40
2022-09-23T04:43:23.765Z,6.65
2022-09-23T04:46:01.293Z,6.20
2022-09-23T04:48:28.889Z,6.85
2022-09-23T04:51:03.263Z,7.32
2022-09-23T04:53:31.509Z,6.55
2022-09-23T04:56:05.737Z,6.40
2022-09-23T04:58:33.789Z,6.93
2022-09-23T05:01:12.237Z,6.68
2022-09-23T05:03:39.556Z,6.15
2022-09-23T05:06:07.885Z,6.20
2022-09-23T05:08:35.322Z,5.90
2022-09-23T05:11:07.481Z,5.57
2022-09-23T05:13:35.434Z,5.28
2022-09-23T05:16:08.383Z,5.45
2022-09-23T05:18:36.180Z,5.10
2022-09-23T05:21:03.760Z,5.53
2022-09-23T05:23:30.783Z,4.90
2022-09-23T05:26:04.054Z,5.22
2022-09-23T05:28:33.095Z,4.38
2022-09-23T05:31:17.151Z,4.70
2022-09-23T05:33:49.252Z,4.40
2022-09-23T05:36:17.908Z,4.50
2022-09-23T05:38:45.574Z,4.18
2022-09-23T05:41:14.064Z,4.28
2022-09-23T05:43:41.448Z,4.00
2022-09-23T05:46:16.412Z,4.03
2022-09-23T05:48:45.945Z,4.70
2022-09-23T05:51:27.498Z,4.13
2022-09-23T05:53:58.457Z,3.60
2022-09-23T05:56:27.656Z,3.90
2022-09-23T05:58:56.424Z,4.10
2022-09-23T06:01:25.798Z,3.88
2022-09-23T06:03:54.515Z,3.92
2022-09-23T06:06:26.505Z,3.72
2022-09-23T06:08:53.510Z,3.60
2022-09-23T06:11:21.670Z,3.67
2022-09-23T06:13:49.445Z,3.47
2022-09-23T06:16:16.705Z,4.55
2022-09-23T06:18:45.798Z,3.53
2022-09-23T06:21:17.209Z,3.78
2022-09-23T06:23:45.431Z,4.15
2022-09-23T06:26:14.773Z,4.22
2022-09-23T06:28:43.135Z,4.10
2022-09-23T06:31:15.670Z,4.05
2022-09-23T06:33:44.993Z,3.90
2022-09-23T06:36:22.669Z,3.83
2022-09-23T06:38:57.909Z,4.35
2022-09-23T06:41:24.795Z,4.28
2022-09-23T06:43:52.644Z,4.05
2022-09-23T06:46:21.339Z,4.72
2022-09-23T06:48:49.251Z,4.50
2022-09-23T06:51:19.382Z,4.97
2022-09-23T06:53:48.257Z,5.05
2022-09-23T06:56:16.803Z,5.47
2022-09-23T06:58:43.810Z,4.55
2022-09-23T07:01:16.161Z,5.13
2022-09-23T07:03:44.781Z,4.90
2022-09-23T07:06:12.082Z,5.22
2022-09-23T07:08:42.680Z,5.25
2022-09-23T07:11:12.355Z,6.70
2022-09-23T07:13:41.297Z,5.03
2022-09-23T07:16:09.120Z,4.57
2022-09-23T07:18:37.476Z,5.10
2022-09-23T07:21:07.173Z,5.00
2022-09-23T07:23:34.305Z,5.13
2022-09-23T07:26:01.440Z,4.70
2022-09-23T07:28:29.246Z,4.28
2022-09-23T07:31:00.288Z,4.55
2022-09-23T07:33:32.961Z,5.20
2022-09-23T07:36:32.909Z,4.50
2022-09-23T07:39:03.985Z,4.57
2022-09-23T07:41:33.169Z,4.63
2022-09-23T07:44:01.270Z,5.38
2022-09-23T07:46:31.757Z,5.18
2022-09-23T07:48:59.244Z,5.00
2022-09-23T07:51:36.045Z,5.00
2022-09-23T07:54:08.019Z,5.22
2022-09-23T07:56:36.341Z,4.85
2022-09-23T07:59:04.797Z,6.32
2022-09-23T08:01:37.293Z,5.68
2022-09-23T08:04:13.058Z,5.82
2022-09-23T08:06:45.133Z,5.90
2022-09-23T08:09:12.806Z,5.53
2022-09-23T08:11:42.230Z,5.35
2022-09-23T08:14:11.363Z,6.00
2022-09-23T08:16:38.715Z,5.80
2022-09-23T08:19:06.329Z,5.57
2022-09-23T08:21:33.785Z,6.03
2022-09-23T08:24:00.831Z,5.35
2022-09-23T08:26:28.941Z,5.35
2022-09-23T08:28:56.611Z,5.32
2022-09-23T08:31:24.082Z,5.05
2022-09-23T08:33:58.544Z,5.93
2022-09-23T08:36:26.019Z,5.57
2022-09-23T08:38:53.253Z,5.05
2022-09-23T08:41:26.331Z,5.70
2022-09-23T08:44:26.796Z,5.07
2022-09-23T08:47:28.086Z,4.78
2022-09-23T08:50:06.657Z,4.15
2022-09-23T08:52:49.343Z,4.30
2022-09-23T08:55:17.660Z,4.90
2022-09-23T08:58:26.195Z,5.85
2022-09-23T09:01:00.199Z,6.18
2022-09-23T09:03:35.154Z,6.00
2022-09-23T09:06:03.135Z,6.75
2022-09-23T09:08:35.268Z,5.93
2022-09-23T09:11:03.357Z,5.70
2022-09-23T09:13:34.683Z,5.60
2022-09-23T09:16:36.670Z,5.15
2022-09-23T09:19:19.151Z,4.93
2022-09-23T09:21:50.684Z,6.10
2022-09-23T09:24:23.051Z,5.75
2022-09-23T09:26:50.414Z,5.72
2022-09-23T09:29:41.618Z,5.60
2022-09-23T09:32:47.450Z,5.57
2022-09-23T09:35:56.213Z,5.55
2022-09-23T09:38:24.202Z,5.95
2022-09-23T09:40:51.263Z,5.40
2022-09-23T09:43:25.241Z,4.70
2022-09-23T09:46:23.212Z,4.43
2022-09-23T09:48:59.871Z,4.97
2022-09-23T09:51:29.091Z,4.82
2022-09-23T09:54:17.291Z,4.47
2022-09-23T09:56:45.163Z,4.60
2022-09-23T09:59:18.537Z,4.05
2022-09-23T10:01:46.254Z,4.10
2022-09-23T10:04:33.702Z,3.72
2022-09-23T10:07:24.563Z,3.92
2022-09-23T10:09:51.790Z,4.10
2022-09-23T10:12:24.589Z,4.03
2022-09-23T10:15:01.175Z,4.13
2022-09-23T10:17:34.462Z,3.30
2022-09-23T10:20:07.944Z,3.38
2022-09-23T10:22:42.907Z,4.07
2022-09-23T10:25:17.186Z,3.83
2022-09-23T10:27:45.636Z,3.60
2022-09-23T10:30:15.331Z,3.78
2022-09-23T10:32:45.767Z,3.38
2022-09-23T10:35:21.180Z,3.75
2022-09-23T10:37:54.910Z,3.88
2022-09-23T10:40:43.363Z,3.85
2022-09-23T10:43:44.073Z,3.80
2022-09-23T10:46:39.710Z,4.10
2022-09-23T10:49:36.669Z,4.57
2022-09-23T10:52:22.358Z,4.38
2022-09-23T10:55:04.337Z,4.32
2022-09-23T10:57:46.527Z,3.83
2022-09-23T11:00:14.753Z,5.13
2022-09-23T11:02:57.046Z,4.75
2022-09-23T11:05:52.141Z,5.30
2022-09-23T11:08:37.437Z,4.20
2022-09-23T11:11:19.934Z,4.43
2022-09-23T11:13:59.140Z,4.25
2022-09-23T11:16:53.900Z,4.25
2022-09-23T11:19:34.265Z,4.00
2022-09-23T11:22:42.363Z,4.38
2022-09-23T11:25:40.769Z,4.13
2022-09-23T11:28:33.216Z,3.90
2022-09-23T11:31:19.791Z,4.07
2022-09-23T11:34:08.323Z,4.13
2022-09-23T11:36:41.616Z,4.00
2022-09-23T11:39:17.019Z,3.67
2022-09-23T11:41:45.147Z,3.40
2022-09-23T11:44:21.666Z,3.45
2022-09-23T11:47:01.650Z,3.42
2022-09-23T11:49:40.270Z,3.08
2022-09-23T11:52:10.696Z,3.10
2022-09-23T11:54:46.470Z,3.13
2022-09-23T11:57:24.389Z,2.78
2022-09-23T12:00:16.700Z,3.40
2022-09-23T12:03:32.283Z,3.20
2022-09-23T12:06:18.658Z,3.10
2022-09-23T12:08:45.581Z,3.60
2022-09-23T12:11:37.447Z,3.13
2022-09-23T12:14:19.485Z,3.50
2022-09-23T12:17:16.841Z,3.17
2022-09-23T12:19:47.664Z,3.20
2022-09-23T12:22:52.782Z,3.35
2022-09-23T12:25:52.328Z,3.30
2022-09-23T12:28:36.225Z,3.03
2022-09-23T12:31:08.629Z,3.00
2022-09-23T12:33:36.979Z,2.90
2022-09-23T12:36:05.519Z,2.90
2022-09-23T12:38:37.699Z,3.25
2022-09-23T12:41:26.527Z,3.05
2022-09-23T12:43:57.658Z,3.20
2022-09-23T12:46:27.578Z,3.08
2022-09-23T12:49:03.325Z,3.42
2022-09-23T12:51:35.695Z,3.00
2022-09-23T12:54:05.346Z,3.28
2022-09-23T12:56:38.822Z,3.58
2022-09-23T12:59:29.361Z,3.10
2022-09-23T13:01:57.679Z,4.32
2022-09-23T13:05:02.494Z,3.72
2022-09-23T13:07:34.285Z,4.10
2022-09-23T13:10:18.395Z,4.10
2022-09-23T13:12:46.780Z,3.58
2022-09-23T13:15:26.865Z,4.13
2022-09-23T13:17:53.853Z,4.07
2022-09-23T13:20:20.794Z,3.67
2022-09-23T13:22:53.689Z,4.00
2022-09-23T13:25:29.599Z,3.97
2022-09-23T13:28:01.226Z,3.75
2022-09-23T13:30:28.612Z,4.05
2022-09-23T14:12:09.327Z,5.00
2022-09-23T14:14:39.517Z,4.60
2022-09-23T14:17:08.827Z,4.68
2022-09-23T14:19:36.979Z,4.53
2022-09-23T14:22:04.217Z,3.83
2022-09-23T14:24:34.146Z,4.47
2022-09-23T14:27:13.076Z,4.38
2022-09-23T14:29:43.528Z,3.67
2022-09-23T14:32:18.079Z,3.67
2022-09-23T14:34:49.827Z,3.67
2022-09-23T14:37:58.707Z,3.50
2022-09-23T14:40:29.434Z,3.97
2022-09-23T14:43:06.905Z,3.50
2022-09-23T14:45:36.521Z,3.35
2022-09-23T14:48:13.185Z,3.28
2022-09-23T14:50:50.121Z,3.88
2022-09-23T14:53:22.957Z,3.60
2022-09-23T14:55:53.015Z,3.80
2022-09-23T14:58:25.766Z,3.40
2022-09-23T15:00:59.551Z,3.58
2022-09-23T15:03:28.542Z,3.60
2022-09-23T15:06:08.884Z,3.72
2022-09-23T15:08:36.122Z,3.60
2022-09-23T15:11:08.222Z,4.07
2022-09-23T15:13:42.020Z,3.97
2022-09-23T15:16:09.422Z,4.25
2022-09-23T15:18:38.879Z,3.65
2022-09-23T15:21:15.898Z,3.80
2022-09-23T15:23:48.850Z,3.55
2022-09-23T15:26:20.270Z,3.67
2022-09-23T15:28:48.298Z,4.00
2022-09-23T15:31:19.964Z,4.07
2022-09-23T15:33:48.394Z,3.60
2022-09-23T15:36:21.708Z,3.45
2022-09-23T15:38:49.370Z,3.92
2022-09-23T15:41:17.406Z,3.90
2022-09-23T15:43:44.347Z,4.00
2022-09-23T15:46:19.420Z,3.33
2022-09-23T15:49:02.193Z,3.97
2022-09-23T15:51:29.237Z,4.82
2022-09-23T15:53:56.489Z,4.40
2022-09-23T15:56:24.878Z,3.70
2022-09-23T15:58:51.822Z,4.05
2022-09-23T16:01:28.920Z,3.88
2022-09-23T16:03:56.649Z,3.70
2022-09-23T16:06:24.550Z,3.80
2022-09-23T16:08:52.563Z,4.20
2022-09-23T16:11:25.140Z,3.85
2022-09-23T16:13:52.464Z,3.90
2022-09-23T16:16:22.857Z,4.38
2022-09-23T16:18:53.312Z,4.22
2022-09-23T16:21:22.418Z,4.18
2022-09-23T16:23:51.348Z,4.38
2022-09-23T16:26:22.789Z,4.10
2022-09-23T16:28:51.758Z,4.45
2022-09-23T16:31:19.744Z,4.30
2022-09-23T16:33:48.233Z,4.60
2022-09-23T16:36:27.047Z,4.10
2022-09-23T16:38:57.958Z,3.88
2022-09-23T16:41:26.438Z,4.13
2022-09-23T16:43:53.807Z,4.65
2022-09-23T16:46:21.356Z,4.35
2022-09-23T16:48:52.582Z,4.70
2022-09-23T16:51:34.069Z,4.60
2022-09-23T16:54:00.982Z,4.82
2022-09-23T16:56:29.352Z,5.00
2022-09-23T16:58:57.351Z,4.90
2022-09-23T17:01:45.100Z,5.03
2022-09-23T17:04:13.559Z,4.78
2022-09-23T17:06:50.740Z,5.28
2022-09-23T17:09:19.985Z,5.35
2022-09-23T17:11:53.073Z,4.72
2022-09-23T17:14:20.776Z,4.70
2022-09-23T17:16:47.651Z,4.50
2022-09-23T17:19:14.773Z,4.28
2022-09-23T17:21:41.919Z,4.60
2022-09-23T17:24:10.017Z,4.32
2022-09-23T17:26:38.361Z,3.90
2022-09-23T17:29:05.760Z,4.00
2022-09-23T17:31:32.989Z,3.70
2022-09-23T17:34:00.921Z,4.28
2022-09-23T17:36:28.309Z,4.28
2022-09-23T17:38:56.016Z,4.40
2022-09-23T17:41:23.009Z,4.05
2022-09-23T17:44:00.618Z,4.18
2022-09-23T17:46:30.289Z,3.78
2022-09-23T17:48:57.473Z,3.97
2022-09-23T17:51:25.629Z,3.85
2022-09-23T17:53:52.694Z,4.20
2022-09-23T17:56:29.914Z,3.90
2022-09-23T17:59:01.074Z,4.00
2022-09-23T18:01:28.636Z,4.10
2022-09-23T18:03:57.434Z,4.43
2022-09-23T18:06:26.856Z,4.25
2022-09-23T18:08:56.018Z,4.20
2022-09-23T18:11:28.755Z,6.80
2022-09-23T18:14:16.026Z,4.88
2022-09-23T18:16:44.808Z,4.38
2022-09-23T18:19:14.362Z,4.72
2022-09-23T18:21:44.007Z,5.38
2022-09-23T18:26:59.978Z,4.90
2022-09-23T18:29:27.162Z,4.50
2022-09-23T18:31:54.384Z,4.53
2022-09-23T18:34:21.640Z,4.10
2022-09-23T18:36:48.569Z,4.82
2022-09-23T18:39:15.550Z,4.47
2022-09-23T18:41:42.521Z,4.28
2022-09-23T18:44:09.902Z,3.97
2022-09-23T18:46:37.170Z,4.28
2022-09-23T18:49:22.715Z,4.38
2022-09-23T18:51:55.860Z,4.45
2022-09-23T18:54:27.977Z,4.60
2022-09-23T18:56:55.878Z,4.90
2022-09-23T18:59:28.114Z,4.97
2022-09-23T19:01:55.894Z,4.70
2022-09-23T19:04:24.850Z,4.78
2022-09-23T19:06:52.048Z,4.53
2022-09-23T19:09:19.988Z,5.07
2022-09-23T19:11:46.999Z,4.82
2022-09-23T19:14:14.064Z,4.45
2022-09-23T19:16:41.655Z,5.00
2022-09-23T19:19:09.009Z,4.45
2022-09-23T19:21:36.571Z,4.80
2022-09-23T19:24:07.097Z,4.85
2022-09-23T19:26:39.742Z,4.97
2022-09-23T19:29:09.053Z,5.32
2022-09-23T19:31:41.277Z,5.05
2022-09-23T19:34:15.852Z,4.85
2022-09-23T19:36:45.068Z,5.85
2022-09-23T19:39:24.008Z,5.68
2022-09-23T19:41:52.567Z,5.28
2022-09-23T19:44:20.294Z,5.72
2022-09-23T19:46:53.652Z,5.82
2022-09-23T19:49:24.699Z,5.65
2022-09-23T19:51:52.108Z,6.22
2022-09-23T19:54:20.775Z,5.72
2022-09-23T19:56:51.043Z,6.18
2022-09-23T19:59:19.364Z,6.43
2022-09-23T20:01:48.362Z,5.97
2022-09-23T20:04:16.157Z,6.45
2022-09-23T20:06:43.358Z,6.00
2022-09-23T20:09:10.283Z,5.63
2022-09-23T20:11:37.369Z,6.03
2022-09-23T20:14:06.230Z,5.50
2022-09-23T20:16:35.737Z,5.63
2022-09-23T20:19:04.453Z,5.43
2022-09-23T20:21:33.539Z,4.97
2022-09-23T20:24:01.310Z,5.05
2022-09-23T20:26:47.175Z,5.05
2022-09-23T20:29:14.385Z,5.13
2022-09-23T20:31:41.696Z,5.43
2022-09-23T20:34:10.890Z,5.25
2022-09-23T20:36:40.149Z,4.60
2022-09-23T20:39:07.373Z,4.90
2022-09-23T20:41:37.591Z,4.88
2022-09-23T20:44:08.048Z,4.97
2022-09-23T20:46:35.948Z,5.20
2022-09-23T20:49:04.287Z,4.95
2022-09-23T20:51:33.461Z,5.07
2022-09-23T20:54:01.176Z,5.88
2022-09-23T20:56:29.263Z,5.18
2022-09-23T20:59:04.303Z,5.53
2022-09-23T21:01:36.658Z,5.32
2022-09-23T21:04:05.841Z,5.57
2022-09-23T21:06:35.729Z,6.00
2022-09-23T21:09:03.562Z,5.95
2022-09-23T21:11:32.078Z,5.85
2022-09-23T21:14:00.490Z,6.20
2022-09-23T21:16:27.795Z,6.50
2022-09-23T21:18:54.745Z,6.20
2022-09-23T21:21:22.471Z,5.75
2022-09-23T21:23:50.892Z,6.10
2022-09-23T21:26:20.743Z,6.30
2022-09-23T21:28:50.441Z,6.47
2022-09-23T21:31:23.374Z,6.15
2022-09-23T21:33:59.509Z,7.10
2022-09-23T21:36:28.879Z,7.00
2022-09-23T21:38:56.393Z,6.53
2022-09-23T21:41:23.931Z,6.22
2022-09-23T21:43:51.302Z,6.45
2022-09-23T21:46:20.544Z,7.03
2022-09-23T21:48:53.810Z,7.70
2022-09-23T21:51:24.892Z,7.05
2022-09-23T21:53:54.602Z,6.80
2022-09-23T21:56:24.512Z,7.72
2022-09-23T21:58:54.051Z,7.65
2022-09-23T22:01:25.059Z,7.22
2022-09-23T22:04:08.601Z,7.75
2022-09-23T22:06:38.324Z,7.85
2022-09-23T22:09:10.573Z,8.23
2022-09-23T22:11:57.766Z,8.40
2022-09-23T22:14:26.383Z,8.00
2022-09-23T22:16:59.709Z,7.85
2022-09-23T22:19:32.904Z,8.07
2022-09-23T22:22:00.207Z,8.02
2022-09-23T22:24:27.232Z,9.05
2022-09-23T22:26:54.221Z,8.95
2022-09-23T22:29:39.618Z,9.15
2022-09-23T22:32:29.862Z,8.77
2022-09-23T22:34:57.021Z,8.40
2022-09-23T22:37:30.584Z,8.73
2022-09-23T22:39:57.561Z,9.15
2022-09-23T22:42:24.461Z,9.18
2022-09-23T22:44:52.077Z,9.13
2022-09-23T22:47:19.964Z,8.50
2022-09-23T22:49:47.886Z,8.50
2022-09-23T22:52:16.206Z,8.32
2022-09-23T22:54:43.396Z,8.55
2022-09-23T22:57:10.650Z,9.55
2022-09-23T22:59:37.749Z,9.15
2022-09-23T23:02:06.657Z,8.18
2022-09-23T23:04:33.978Z,8.57
2022-09-23T23:07:00.929Z,8.77
2022-09-23T23:09:27.825Z,8.60
2022-09-23T23:11:54.747Z,8.05
2022-09-23T23:14:21.819Z,8.77
2022-09-23T23:16:49.399Z,8.57
2022-09-23T23:19:19.334Z,8.70
2022-09-23T23:21:46.320Z,7.50
2022-09-23T23:24:17.318Z,7.63
2022-09-23T23:26:45.321Z,7.78
2022-09-23T23:29:14.070Z,7.68
2022-09-23T23:31:41.546Z,7.20
2022-09-23T23:34:14.899Z,7.38
2022-09-23T23:36:42.218Z,7.80
2022-09-23T23:39:09.449Z,6.75
2022-09-23T23:41:36.933Z,6.80
2022-09-23T23:44:05.570Z,6.70
2022-09-23T23:46:33.106Z,6.57
2022-09-23T23:49:00.599Z,6.68
2022-09-23T23:51:28.191Z,6.18
2022-09-23T23:53:56.023Z,6.10
2022-09-23T23:56:25.000Z,5.63
2022-09-23T23:58:59.817Z,6.45
